Time;durP1;ratioP1;P1;durP2;ratioP2;P2;SDS_P1;SDS_P2;PMS_P1;PMS_P2;Temp;Humidity;BMP_temperature;BMP_pressure;BME280_temperature;BME280_humidity;BME280_pressure;Samples;Min_cycle;Max_cycle;Signal;HPM_P1;HPM_P2
2022/12/27 00:00:18;;;;;;;1999.90;999.90;;;7.20;99.90;;;;;;5021218;28;20454;-66
2022/12/27 00:02:45;;;;;;;1999.90;999.90;;;7.20;99.90;;;;;;5008762;28;20446;-68
2022/12/27 00:05:14;;;;;;;1999.90;999.90;;;7.10;99.90;;;;;;5008684;28;20476;-68
2022/12/27 00:07:41;;;;;;;1999.90;999.90;;;7.00;99.90;;;;;;5008743;28;20449;-67
2022/12/27 00:10:09;;;;;;;1999.90;999.90;;;6.90;99.90;;;;;;5007842;28;20485;-67
2022/12/27 00:12:36;;;;;;;1999.90;999.90;;;6.90;99.90;;;;;;5008560;28;20842;-67
2022/12/27 00:15:04;;;;;;;1999.90;999.90;;;6.90;99.90;;;;;;5009790;28;20516;-66
2022/12/27 00:17:31;;;;;;;1999.90;999.90;;;6.90;99.90;;;;;;4988874;28;20462;-67
2022/12/27 00:19:57;;;;;;;1999.90;999.90;;;6.80;99.90;;;;;;4988207;28;20447;-67
2022/12/27 00:22:25;;;;;;;1999.90;999.90;;;6.80;99.90;;;;;;4988745;28;20843;-68
2022/12/27 00:24:53;;;;;;;1999.90;999.90;;;6.70;99.90;;;;;;4988884;28;20458;-67
2022/12/27 00:27:19;;;;;;;1999.90;999.90;;;6.60;99.90;;;;;;4988989;28;20486;-67
2022/12/27 00:29:46;;;;;;;1999.90;999.90;;;6.60;99.90;;;;;;4988031;28;20486;-67
2022/12/27 00:32:13;;;;;;;1999.90;999.90;;;6.50;99.90;;;;;;4990515;28;20477;-68
2022/12/27 00:34:40;;;;;;;1999.90;999.90;;;6.50;99.90;;;;;;5008741;28;20590;-67
2022/12/27 00:37:07;;;;;;;1999.90;999.90;;;6.50;99.90;;;;;;5008546;28;20457;-67
2022/12/27 00:39:35;;;;;;;1999.90;999.90;;;6.40;99.90;;;;;;5007458;28;20453;-67
2022/12/27 00:42:01;;;;;;;1999.90;999.90;;;6.40;99.90;;;;;;5008509;28;20456;-66
2022/12/27 00:44:28;;;;;;;1999.90;999.90;;;6.40;99.90;;;;;;5008313;28;20833;-67
2022/12/27 00:46:55;;;;;;;1999.90;999.90;;;6.40;99.90;;;;;;5008321;28;20473;-67
2022/12/27 00:49:22;;;;;;;1999.90;999.90;;;6.30;99.90;;;;;;5007501;28;20454;-68
2022/12/27 00:51:49;;;;;;;1999.90;999.90;;;6.30;99.90;;;;;;5009757;28;20460;-67
2022/12/27 00:54:16;;;;;;;1999.90;999.90;;;6.30;99.90;;;;;;5007809;28;20544;-66
2022/12/27 00:56:44;;;;;;;1999.90;999.90;;;6.20;99.90;;;;;;5008411;28;20853;-67
2022/12/27 00:59:11;;;;;;;1999.90;999.90;;;6.10;99.90;;;;;;5007225;28;20458;-67
2022/12/27 01:01:39;;;;;;;1999.90;999.90;;;6.10;99.90;;;;;;5008266;28;20442;-67
2022/12/27 01:04:06;;;;;;;1999.90;999.90;;;6.10;99.90;;;;;;5007976;28;20446;-67
2022/12/27 01:06:34;;;;;;;1999.90;999.90;;;6.00;99.90;;;;;;5008212;28;20472;-66
2022/12/27 01:09:02;;;;;;;1999.90;999.90;;;5.90;99.90;;;;;;5008408;28;20478;-66
2022/12/27 01:11:29;;;;;;;1999.90;999.90;;;5.90;99.90;;;;;;5015266;28;20481;-66
2022/12/27 01:13:58;;;;;;;1999.90;999.90;;;5.80;99.90;;;;;;5027369;28;20445;-67
2022/12/27 01:16:27;;;;;;;1999.90;999.90;;;5.80;99.90;;;;;;5027993;28;20552;-67
2022/12/27 01:18:55;;;;;;;1999.90;999.90;;;5.70;99.90;;;;;;5026831;28;20457;-67
2022/12/27 01:21:24;;;;;;;1999.90;999.90;;;5.60;99.90;;;;;;5027653;28;20437;-67
2022/12/27 01:23:52;;;;;;;1999.90;999.90;;;5.50;99.90;;;;;;5027043;28;20547;-67
2022/12/27 01:26:20;;;;;;;1999.90;999.90;;;5.50;99.90;;;;;;5025881;28;20528;-67
2022/12/27 01:28:48;;;;;;;1999.90;999.90;;;5.40;99.90;;;;;;5026808;28;20449;-67
2022/12/27 01:31:19;;;;;;;1999.90;999.90;;;5.30;99.90;;;;;;5027534;28;20484;-68
2022/12/27 01:33:46;;;;;;;1999.90;999.90;;;5.20;99.90;;;;;;5027088;28;20460;-67
2022/12/27 01:36:15;;;;;;;1999.90;999.90;;;5.20;99.90;;;;;;5027267;28;21015;-67
2022/12/27 01:38:43;;;;;;;1999.90;999.90;;;5.10;99.90;;;;;;5026248;28;20953;-67
2022/12/27 01:43:58;;;;;;;1999.90;999.90;;;4.90;99.90;;;;;;4987640;28;20438;-68
2022/12/27 01:46:26;;;;;;;1999.90;999.90;;;4.80;99.90;;;;;;4988039;28;20477;-68
2022/12/27 01:48:53;;;;;;;1999.90;999.90;;;4.70;99.90;;;;;;4987161;28;20454;-68
2022/12/27 01:51:19;;;;;;;1999.90;999.90;;;4.60;99.90;;;;;;4990857;28;20482;-68
2022/12/27 01:53:50;;;;;;;1999.90;999.90;;;4.60;99.90;;;;;;4991416;28;20454;-67
2022/12/27 01:56:23;;;;;;;1999.90;999.90;;;4.50;99.90;;;;;;4991638;28;20980;-68
2022/12/27 01:58:54;;;;;;;1999.90;999.90;;;4.50;99.90;;;;;;5009929;28;20454;-68
2022/12/27 02:01:23;;;;;;;1999.90;999.90;;;4.50;99.90;;;;;;5026484;28;20449;-68
2022/12/27 02:03:54;;;;;;;1999.90;999.90;;;4.50;99.90;;;;;;5030399;28;20499;-68
2022/12/27 02:06:22;;;;;;;1999.90;999.90;;;4.40;99.90;;;;;;5030783;28;20468;-68
2022/12/27 02:08:56;;;;;;;1999.90;999.90;;;4.30;99.90;;;;;;5030304;28;20444;-67
2022/12/27 02:14:07;;;;;;;1999.90;999.90;;;4.10;99.90;;;;;;5029353;28;20516;-67
2022/12/27 02:16:34;;;;;;;1999.90;999.90;;;4.10;99.90;;;;;;5015868;28;20473;-68
2022/12/27 02:19:03;;;;;;;1999.90;999.90;;;4.00;99.90;;;;;;5009515;28;20453;-67
2022/12/27 02:22:09;;;;;;;1999.90;999.90;;;3.90;99.90;;;;;;5010981;28;20445;-68
2022/12/27 02:25:00;;;;;;;1999.90;999.90;;;4.00;99.90;;;;;;5010859;28;20448;-69
2022/12/27 02:27:49;;;;;;;1999.90;999.90;;;4.00;99.90;;;;;;5010820;28;21150;-69
2022/12/27 02:30:18;;;;;;;1999.90;999.90;;;4.10;99.90;;;;;;5009297;28;20485;-68
2022/12/27 02:32:51;;;;;;;1999.90;999.90;;;4.10;99.90;;;;;;5014246;28;20457;-69
2022/12/27 02:35:23;;;;;;;1999.90;999.90;;;4.10;99.90;;;;;;5029808;28;20848;-68
2022/12/27 02:37:57;;;;;;;1999.90;999.90;;;4.00;99.90;;;;;;5030547;28;20445;-68
2022/12/27 02:55:31;;;;;;;1999.90;999.90;;;4.00;99.90;;;;;;4987841;28;21294;-69
2022/12/27 02:58:14;;;;;;;1999.90;999.90;;;4.00;99.90;;;;;;4987937;28;20445;-68
2022/12/27 03:04:03;;;;;;;1999.90;999.90;;;3.80;99.90;;;;;;5029706;28;21204;-68
2022/12/27 03:06:50;;;;;;;1999.90;999.90;;;3.80;99.90;;;;;;5029845;28;20464;-68
2022/12/27 03:15:56;;;;;;;1999.90;999.90;;;3.70;99.90;;;;;;5010085;28;20448;-68
2022/12/27 03:18:33;;;;;;;1999.90;999.90;;;3.70;99.90;;;;;;5009163;28;20450;-67
2022/12/27 03:26:40;;;;;;;1999.90;999.90;;;3.40;99.90;;;;;;5010697;28;20460;-68
2022/12/27 03:34:45;;;;;;;1999.90;999.90;;;3.40;99.90;;;;;;5009588;28;20492;-67
2022/12/27 03:40:06;;;;;;;1999.90;999.90;;;3.50;99.90;;;;;;5009082;28;20514;-67
2022/12/27 03:46:32;;;;;;;1999.90;999.90;;;3.60;99.90;;;;;;5009593;28;20452;-67
2022/12/27 03:48:13;;;;;;;1999.90;999.90;;;3.50;99.90;;;;;;5009221;28;20478;-67
2022/12/27 03:50:46;;;;;;;1999.90;999.90;;;3.50;99.90;;;;;;5009171;28;20477;-67
2022/12/27 03:53:21;;;;;;;1999.90;999.90;;;3.50;99.90;;;;;;5009041;28;20776;-68
2022/12/27 03:55:48;;;;;;;1999.90;999.90;;;3.30;99.90;;;;;;5009339;28;20469;-68
2022/12/27 03:58:15;;;;;;;1999.90;999.90;;;3.30;99.90;;;;;;5008580;28;20458;-68
2022/12/27 04:00:42;;;;;;;1999.90;999.90;;;3.40;99.90;;;;;;5010235;28;20458;-66
2022/12/27 04:03:09;;;;;;;1999.90;999.90;;;3.30;99.90;;;;;;5008676;28;20450;-68
2022/12/27 04:05:35;;;;;;;1999.90;999.90;;;3.30;99.90;;;;;;5008853;28;20487;-67
2022/12/27 04:35:26;;;;;;;1999.90;999.90;;;3.30;99.90;;;;;;5009716;28;21017;-67
2022/12/27 04:37:53;;;;;;;1999.90;999.90;;;3.40;99.90;;;;;;5008660;28;20469;-68
2022/12/27 04:57:11;;;;;;;1999.90;999.90;;;3.30;99.90;;;;;;4950999;28;20442;-67
2022/12/27 05:02:23;;;;;;;1999.90;999.90;;;3.30;99.90;;;;;;5007800;28;20425;-68
2022/12/27 05:04:50;;;;;;;1999.90;999.90;;;3.30;99.90;;;;;;5007992;28;20452;-68
2022/12/27 05:15:34;;;;;;;1999.90;999.90;;;3.20;99.90;;;;;;5027549;28;20444;-69
2022/12/27 05:18:01;;;;;;;1999.90;999.90;;;3.30;99.90;;;;;;5027659;28;20441;-68
2022/12/27 05:20:27;;;;;;;1999.90;999.90;;;3.30;99.90;;;;;;5025161;28;20444;-69
2022/12/27 05:25:41;;;;;;;1999.90;999.90;;;3.30;99.90;;;;;;5027339;28;20524;-69
2022/12/27 05:28:09;;;;;;;1999.90;999.90;;;3.20;99.90;;;;;;5027387;28;20471;-67
2022/12/27 05:30:39;;;;;;;1999.90;999.90;;;3.30;99.90;;;;;;5015296;28;20450;-68
2022/12/27 05:33:06;;;;;;;1999.90;999.90;;;3.20;99.90;;;;;;5007182;28;20974;-68
2022/12/27 05:35:33;;;;;;;1999.90;999.90;;;3.20;99.90;;;;;;5007555;28;20994;-68
2022/12/27 05:38:00;;;;;;;1999.90;999.90;;;3.20;99.90;;;;;;5008852;28;20473;-67
2022/12/27 05:40:27;;;;;;;1999.90;999.90;;;3.20;99.90;;;;;;5007068;28;20940;-67
2022/12/27 05:42:57;;;;;;;1999.90;999.90;;;3.20;99.90;;;;;;5007395;28;20448;-67
2022/12/27 05:45:24;;;;;;;1999.90;999.90;;;3.10;99.90;;;;;;5007687;28;20470;-69
2022/12/27 05:47:52;;;;;;;1999.90;999.90;;;3.10;99.90;;;;;;5007580;28;20442;-68
2022/12/27 05:50:19;;;;;;;1999.90;999.90;;;3.10;99.90;;;;;;5006783;28;20461;-68
2022/12/27 05:52:46;;;;;;;1999.90;999.90;;;3.00;99.90;;;;;;5007071;28;20485;-68
2022/12/27 05:55:12;;;;;;;1999.90;999.90;;;3.00;99.90;;;;;;5007398;28;20476;-68
2022/12/27 05:57:39;;;;;;;1999.90;999.90;;;3.00;99.90;;;;;;5008418;28;20460;-68
2022/12/27 06:00:07;;;;;;;1999.90;999.90;;;2.90;99.90;;;;;;5011125;28;20457;-67
2022/12/27 06:02:34;;;;;;;1999.90;999.90;;;2.90;99.90;;;;;;5026747;28;21078;-68
2022/12/27 06:05:02;;;;;;;1999.90;999.90;;;2.90;99.90;;;;;;5027117;28;20874;-67
2022/12/27 06:07:29;;;;;;;1999.90;999.90;;;2.90;99.90;;;;;;5027141;28;20449;-68
2022/12/27 06:09:56;;;;;;;1999.90;999.90;;;2.90;99.90;;;;;;5025704;28;20461;-68
2022/12/27 06:12:22;;;;;;;1999.90;999.90;;;3.00;99.90;;;;;;5026721;28;20484;-67
2022/12/27 06:14:49;;;;;;;1999.90;999.90;;;2.90;99.90;;;;;;5027087;28;20445;-67
2022/12/27 06:17:16;;;;;;;1999.90;999.90;;;2.90;99.90;;;;;;5025569;28;20449;-68
2022/12/27 06:19:42;;;;;;;1999.90;999.90;;;2.90;99.90;;;;;;5026612;28;20460;-68
2022/12/27 06:22:11;;;;;;;1999.90;999.90;;;2.90;99.90;;;;;;5027071;28;20931;-68
2022/12/27 06:24:37;;;;;;;1999.90;999.90;;;2.90;99.90;;;;;;5027575;28;20437;-68
2022/12/27 06:27:04;;;;;;;1999.90;999.90;;;2.90;99.90;;;;;;5027406;28;20457;-68
2022/12/27 06:29:31;;;;;;;1999.90;999.90;;;2.90;99.90;;;;;;5026501;28;20448;-68
2022/12/27 06:31:58;;;;;;;1999.90;999.90;;;2.80;99.90;;;;;;5027067;28;20468;-68
2022/12/27 06:34:24;;;;;;;1999.90;999.90;;;2.80;99.90;;;;;;5025154;28;20827;-68
2022/12/27 06:36:51;;;;;;;1999.90;999.90;;;2.70;99.90;;;;;;5028883;28;20460;-68
2022/12/27 06:39:19;;;;;;;1999.90;999.90;;;2.70;99.90;;;;;;5029880;28;20799;-69
2022/12/27 06:41:46;;;;;;;1999.90;999.90;;;2.70;99.90;;;;;;5030762;28;20441;-68
2022/12/27 06:44:13;;;;;;;1999.90;999.90;;;2.70;99.90;;;;;;5029957;28;20931;-68
2022/12/27 06:46:40;;;;;;;1999.90;999.90;;;2.80;99.90;;;;;;5030248;28;20499;-68
2022/12/27 06:49:06;;;;;;;1999.90;999.90;;;2.80;99.90;;;;;;5024081;28;20839;-70
2022/12/27 06:51:33;;;;;;;1999.90;999.90;;;2.80;99.90;;;;;;5010388;28;20477;-69
2022/12/27 06:54:00;;;;;;;1999.90;999.90;;;2.80;99.90;;;;;;5010367;28;20973;-68
2022/12/27 06:56:28;;;;;;;1999.90;999.90;;;2.80;99.90;;;;;;5010388;28;20975;-69
2022/12/27 06:58:55;;;;;;;1999.90;999.90;;;2.80;99.90;;;;;;5009633;28;20453;-68
2022/12/27 07:01:25;;;;;;;1999.90;999.90;;;2.80;99.90;;;;;;5010300;28;20448;-67
2022/12/27 07:03:52;;;;;;;1999.90;999.90;;;2.90;99.90;;;;;;5010342;28;20452;-67
2022/12/27 07:06:20;;;;;;;1999.90;999.90;;;2.90;99.90;;;;;;5025985;28;20834;-68
2022/12/27 07:08:48;;;;;;;1999.90;999.90;;;2.90;99.90;;;;;;5028829;28;20995;-68
2022/12/27 07:11:16;;;;;;;1999.90;999.90;;;2.90;99.90;;;;;;5029652;28;20472;-68
2022/12/27 07:13:47;;;;;;;1999.90;999.90;;;2.90;99.90;;;;;;5029118;28;20445;-68
2022/12/27 07:16:16;;;;;;;1999.90;999.90;;;3.00;99.90;;;;;;5029695;28;20481;-65
2022/12/27 07:18:43;;;;;;;1999.90;999.90;;;2.90;99.90;;;;;;5029067;28;20448;-68
2022/12/27 07:21:14;;;;;;;1999.90;999.90;;;3.00;99.90;;;;;;5029575;28;20445;-68
2022/12/27 07:23:41;;;;;;;1999.90;999.90;;;2.90;99.90;;;;;;5013369;28;20477;-68
2022/12/27 07:26:10;;;;;;;1999.90;999.90;;;3.00;99.90;;;;;;5009627;28;20487;-68
2022/12/27 07:28:38;;;;;;;1999.90;999.90;;;3.00;99.90;;;;;;5008934;28;20833;-68
2022/12/27 07:31:08;;;;;;;1999.90;999.90;;;3.00;99.90;;;;;;5009386;28;20461;-67
2022/12/27 07:33:35;;;;;;;1999.90;999.90;;;3.00;99.90;;;;;;5009641;28;20450;-66
2022/12/27 07:36:02;;;;;;;1999.90;999.90;;;3.00;99.90;;;;;;5009713;28;20847;-67
2022/12/27 07:38:29;;;;;;;1999.90;999.90;;;3.00;99.90;;;;;;5008644;28;20457;-67
2022/12/27 07:40:59;;;;;;;1999.90;999.90;;;3.10;99.90;;;;;;5010829;28;20836;-67
2022/12/27 07:43:25;;;;;;;1999.90;999.90;;;3.00;99.90;;;;;;5008922;28;20446;-67
2022/12/27 07:45:52;;;;;;;1999.90;999.90;;;3.00;99.90;;;;;;5009291;28;20478;-68
2022/12/27 07:48:20;;;;;;;1999.90;999.90;;;3.10;99.90;;;;;;5007778;28;20453;-67
2022/12/27 07:50:54;;;;;;;1999.90;999.90;;;3.10;99.90;;;;;;5009409;28;20472;-68
2022/12/27 07:53:21;;;;;;;1999.90;999.90;;;3.20;99.90;;;;;;5008859;28;20528;-69
2022/12/27 07:55:49;;;;;;;1999.90;999.90;;;3.20;99.90;;;;;;5009132;28;20492;-68
2022/12/27 07:58:16;;;;;;;1999.90;999.90;;;3.20;99.90;;;;;;5009487;28;20454;-68
2022/12/27 08:00:43;;;;;;;1999.90;999.90;;;3.20;99.90;;;;;;5018724;28;20457;-68
2022/12/27 08:03:10;;;;;;;1999.90;999.90;;;3.20;99.90;;;;;;5028350;28;20943;-68
2022/12/27 08:05:38;;;;;;;1999.90;999.90;;;3.30;99.90;;;;;;5028864;28;20473;-69
2022/12/27 08:08:05;;;;;;;1999.90;999.90;;;3.30;99.90;;;;;;5028597;28;20531;-67
2022/12/27 08:10:32;;;;;;;1999.90;999.90;;;3.40;99.90;;;;;;5027847;28;20464;-68
2022/12/27 08:12:59;;;;;;;1999.90;999.90;;;3.50;99.90;;;;;;5028398;28;20499;-70
2022/12/27 08:15:26;;;;;;;1999.90;999.90;;;3.60;99.90;;;;;;5024279;28;20889;-69
2022/12/27 08:17:52;;;;;;;1999.90;999.90;;;3.60;99.90;;;;;;5009007;28;21125;-69
2022/12/27 08:20:19;;;;;;;1999.90;999.90;;;3.60;99.90;;;;;;5007982;28;20452;-69
2022/12/27 08:22:47;;;;;;;1999.90;999.90;;;3.70;99.90;;;;;;5008410;28;20450;-69
2022/12/27 08:25:14;;;;;;;1999.90;999.90;;;3.70;99.90;;;;;;5008460;28;20478;-68
2022/12/27 08:27:41;;;;;;;1999.90;999.90;;;3.80;99.90;;;;;;5008724;28;20445;-69
2022/12/27 08:30:09;;;;;;;1999.90;999.90;;;3.80;99.90;;;;;;5007919;28;20441;-69
2022/12/27 08:32:35;;;;;;;1999.90;999.90;;;3.90;99.90;;;;;;5008060;28;21018;-69
2022/12/27 08:35:02;;;;;;;1999.90;999.90;;;4.00;99.90;;;;;;5024221;28;20817;-68
2022/12/27 08:37:29;;;;;;;1999.90;999.90;;;4.10;99.90;;;;;;5008507;28;20978;-69
2022/12/27 08:39:57;;;;;;;1999.90;999.90;;;4.20;99.90;;;;;;5007552;28;20449;-69
2022/12/27 08:42:24;;;;;;;1999.90;999.90;;;4.30;99.90;;;;;;5008169;28;20822;-69
2022/12/27 08:44:51;;;;;;;1999.90;999.90;;;4.40;99.90;;;;;;5008444;28;20454;-70
2022/12/27 08:47:18;;;;;;;1999.90;999.90;;;4.60;99.90;;;;;;5008753;28;20830;-68
2022/12/27 08:49:45;;;;;;;1999.90;999.90;;;4.70;99.90;;;;;;5007613;28;20457;-69
2022/12/27 08:52:12;;;;;;;1999.90;999.90;;;4.70;99.90;;;;;;5008958;28;20489;-70
2022/12/27 08:54:38;;;;;;;1999.90;999.90;;;4.90;99.90;;;;;;5008283;28;20472;-68
2022/12/27 08:57:07;;;;;;;1999.90;999.90;;;4.90;99.90;;;;;;5008450;28;20481;-69
2022/12/27 08:59:33;;;;;;;1999.90;999.90;;;4.90;99.90;;;;;;5007132;28;20442;-68
2022/12/27 09:02:00;;;;;;;1999.90;999.90;;;5.00;99.90;;;;;;5008363;28;20445;-69
2022/12/27 09:04:27;;;;;;;1999.90;999.90;;;5.00;99.90;;;;;;5007996;28;20449;-69
2022/12/27 09:06:54;;;;;;;1999.90;999.90;;;5.00;99.90;;;;;;5007969;28;20478;-69
2022/12/27 09:09:21;;;;;;;1999.90;999.90;;;5.00;99.90;;;;;;5008567;28;20453;-67
2022/12/27 09:11:47;;;;;;;1999.90;999.90;;;5.10;99.90;;;;;;5007985;28;20504;-69
2022/12/27 09:14:15;;;;;;;1999.90;999.90;;;5.10;99.90;;;;;;5007993;28;20458;-69
2022/12/27 09:16:42;;;;;;;1999.90;999.90;;;5.20;99.90;;;;;;5008053;28;20466;-68
2022/12/27 09:19:10;;;;;;;1999.90;999.90;;;5.20;99.90;;;;;;5007194;28;20450;-69
2022/12/27 09:21:40;;;;;;;1999.90;999.90;;;5.30;99.90;;;;;;5007777;28;20448;-68
2022/12/27 09:24:10;;;;;;;1999.90;999.90;;;5.30;99.90;;;;;;5007694;28;20541;-68
2022/12/27 09:26:36;;;;;;;1999.90;999.90;;;5.30;99.90;;;;;;5020396;28;20477;-70
2022/12/27 09:29:03;;;;;;;1999.90;999.90;;;5.30;99.90;;;;;;5027360;28;20453;-69
2022/12/27 09:31:32;;;;;;;1999.90;999.90;;;5.40;99.90;;;;;;5028021;28;20966;-68
2022/12/27 09:33:59;;;;;;;1999.90;999.90;;;5.40;99.90;;;;;;5027185;28;20487;-69
2022/12/27 09:36:28;;;;;;;1999.90;999.90;;;5.50;99.90;;;;;;5027513;28;20475;-68
2022/12/27 09:38:57;;;;;;;1999.90;999.90;;;5.60;99.90;;;;;;5026660;28;20453;-68
2022/12/27 09:41:37;;;;;;;1999.90;999.90;;;5.60;99.90;;;;;;5027452;28;20445;-70
2022/12/27 09:44:07;;;;;;;1999.90;999.90;;;5.70;99.90;;;;;;5016739;28;21121;-69
2022/12/27 09:46:41;;;;;;;1999.90;999.90;;;5.80;99.90;;;;;;5007670;28;20991;-69
2022/12/27 09:49:11;;;;;;;1999.90;999.90;;;5.90;99.90;;;;;;5007023;28;21161;-69
2022/12/27 09:51:47;;;;;;;1999.90;999.90;;;5.90;99.90;;;;;;5007653;28;20446;-68
2022/12/27 09:54:17;;;;;;;1999.90;999.90;;;6.00;99.90;;;;;;5007353;28;20991;-69
2022/12/27 09:56:44;;;;;;;1999.90;999.90;;;6.10;99.90;;;;;;5007116;28;21017;-68
2022/12/27 09:59:21;;;;;;;1999.90;999.90;;;6.20;99.90;;;;;;5006847;28;20450;-69
2022/12/27 10:01:50;;;;;;;1999.90;999.90;;;6.30;99.90;;;;;;5008336;28;20979;-69
2022/12/27 10:04:18;;;;;;;1999.90;999.90;;;6.40;99.90;;;;;;5007155;28;20445;-70
2022/12/27 10:07:05;;;;;;;1999.90;999.90;;;6.40;99.90;;;;;;5007232;28;20484;-69
2022/12/27 10:09:55;;;;;;;1999.90;999.90;;;6.40;99.90;;;;;;5006559;28;20484;-69
2022/12/27 10:12:34;;;;;;;1999.90;999.90;;;6.60;99.90;;;;;;5009950;28;20488;-69
2022/12/27 10:15:13;;;;;;;1999.90;999.90;;;6.60;99.90;;;;;;5011118;28;20452;-69
2022/12/27 10:17:54;;;;;;;1999.90;999.90;;;6.70;99.90;;;;;;5012198;28;20465;-68
2022/12/27 10:20:44;;;;;;;1999.90;999.90;;;6.80;99.90;;;;;;5010688;28;20457;-67
2022/12/27 10:23:14;;;;;;;1999.90;999.90;;;7.00;99.90;;;;;;5010687;28;20453;-68
2022/12/27 10:25:43;;;;;;;1999.90;999.90;;;7.20;99.90;;;;;;5010971;28;20469;-68
2022/12/27 10:28:14;;;;;;;1999.90;999.90;;;7.60;99.90;;;;;;5010525;28;20446;-68
2022/12/27 10:30:42;;;;;;;1999.90;999.90;;;8.10;99.90;;;;;;5010950;28;20453;-68
2022/12/27 10:33:19;;;;;;;1999.90;999.90;;;8.70;99.90;;;;;;5010501;28;20485;-68
2022/12/27 10:35:46;;;;;;;1999.90;999.90;;;9.20;99.90;;;;;;5011811;28;20473;-69
2022/12/27 10:38:13;;;;;;;1999.90;999.90;;;9.40;99.90;;;;;;5010119;28;20446;-68
2022/12/27 10:40:48;;;;;;;1999.90;999.90;;;9.60;99.90;;;;;;5012214;28;20458;-68
2022/12/27 10:43:19;;;;;;;1999.90;999.90;;;9.60;99.90;;;;;;5030435;28;20491;-68
2022/12/27 10:45:46;;;;;;;1999.90;999.90;;;9.50;99.90;;;;;;5030480;28;20468;-68
2022/12/27 10:48:17;;;;;;;1999.90;999.90;;;9.40;99.90;;;;;;5029929;28;20451;-68
2022/12/27 10:50:47;;;;;;;1999.90;999.90;;;9.30;99.90;;;;;;5030176;28;20449;-68
2022/12/27 10:53:29;;;;;;;1999.90;999.90;;;9.20;99.90;;;;;;5028158;28;21087;-68
2022/12/27 10:56:07;;;;;;;1999.90;999.90;;;9.10;99.90;;;;;;5030239;28;20473;-68
2022/12/27 10:58:38;;;;;;;1999.90;999.90;;;8.90;99.90;;;;;;5029582;28;20451;-69
2022/12/27 11:01:05;;;;;;;1999.90;999.90;;;8.80;99.90;;;;;;5030178;28;21290;-68
2022/12/27 11:03:33;;;;;;;1999.90;999.90;;;8.70;99.90;;;;;;5029639;28;20463;-68
2022/12/27 11:06:03;;;;;;;1999.90;999.90;;;8.60;99.90;;;;;;5030549;28;20469;-68
2022/12/27 11:08:30;;;;;;;1999.90;999.90;;;8.40;99.90;;;;;;5029384;28;20456;-69
2022/12/27 11:11:14;;;;;;;1999.90;999.90;;;8.40;99.90;;;;;;5027967;28;20480;-69
2022/12/27 11:13:42;;;;;;;1999.90;999.90;;;8.30;99.90;;;;;;5028686;28;21009;-68
2022/12/27 11:16:15;;;;;;;1999.90;999.90;;;8.20;99.90;;;;;;5029846;28;20474;-68
2022/12/27 11:18:48;;;;;;;1999.90;999.90;;;8.20;99.90;;;;;;5029147;28;20449;-70
2022/12/27 11:21:16;;;;;;;1999.90;999.90;;;8.20;99.90;;;;;;5030233;28;20452;-69
2022/12/27 11:23:48;;;;;;;1999.90;999.90;;;8.30;99.90;;;;;;5029343;28;20444;-67
2022/12/27 11:26:21;;;;;;;1999.90;999.90;;;8.40;99.90;;;;;;5029672;28;20556;-69
2022/12/27 11:28:53;;;;;;;1999.90;999.90;;;8.50;99.90;;;;;;5027398;28;20445;-69
2022/12/27 11:31:28;;;;;;;1999.90;999.90;;;8.50;99.90;;;;;;5029623;28;20467;-68
2022/12/27 11:34:00;;;;;;;1999.90;999.90;;;8.60;99.90;;;;;;5029266;28;20480;-68
2022/12/27 11:36:30;;;;;;;1999.90;999.90;;;8.70;99.90;;;;;;5029657;28;20476;-67
2022/12/27 11:38:59;;;;;;;1999.90;999.90;;;8.70;99.90;;;;;;5028879;28;20445;-69
2022/12/27 11:41:34;;;;;;;1999.90;999.90;;;8.70;99.90;;;;;;5029516;28;20445;-69
2022/12/27 11:44:05;;;;;;;1999.90;999.90;;;8.60;99.90;;;;;;5028992;28;20454;-68
2022/12/27 11:46:40;;;;;;;1999.90;999.90;;;8.60;99.90;;;;;;5027569;28;20468;-68
2022/12/27 11:49:19;;;;;;;1999.90;999.90;;;8.60;99.90;;;;;;5028620;28;20436;-69
2022/12/27 11:52:03;;;;;;;1999.90;999.90;;;8.70;99.90;;;;;;5029599;28;20472;-68
2022/12/27 11:54:54;;;;;;;1999.90;999.90;;;8.70;99.90;;;;;;5029510;28;20570;-68
2022/12/27 11:57:30;;;;;;;1999.90;999.90;;;8.80;99.90;;;;;;4996130;28;21245;-69
2022/12/27 12:00:06;;;;;;;1999.90;999.90;;;8.90;99.90;;;;;;5024814;28;20958;-69
2022/12/27 12:02:55;;;;;;;1999.90;999.90;;;9.20;99.90;;;;;;4994085;28;20452;-68
2022/12/27 12:05:50;;;;;;;1999.90;999.90;;;9.40;99.90;;;;;;5009733;28;20823;-68
2022/12/27 12:08:38;;;;;;;1999.90;999.90;;;9.60;99.90;;;;;;5008835;28;21055;-68
2022/12/27 12:11:24;;;;;;;1999.90;999.90;;;9.70;99.90;;;;;;5007350;28;20458;-69
2022/12/27 12:14:29;;;;;;;1999.90;999.90;;;9.90;99.90;;;;;;5008623;28;21250;-68
2022/12/27 12:17:14;;;;;;;1999.90;999.90;;;10.10;99.90;;;;;;4983081;28;20471;-68
2022/12/27 12:20:03;;;;;;;1999.90;999.90;;;10.20;99.90;;;;;;5023255;28;20457;-68
2022/12/27 12:22:51;;;;;;;1999.90;999.90;;;10.10;99.90;;;;;;5028355;28;20445;-68
2022/12/27 12:25:40;;;;;;;1999.90;999.90;;;9.90;99.90;;;;;;5028642;28;20469;-69
2022/12/27 12:28:49;;;;;;;1999.90;999.90;;;9.80;99.90;;;;;;5028478;28;20445;-68
2022/12/27 12:31:31;;;;;;;1999.90;999.90;;;9.70;99.90;;;;;;5024533;28;20457;-68
2022/12/27 12:34:07;;;;;;;1999.90;999.90;;;9.60;99.90;;;;;;5012919;28;20477;-67
2022/12/27 12:36:49;;;;;;;1999.90;999.90;;;9.60;99.90;;;;;;5008994;28;20492;-68
2022/12/27 12:39:30;;;;;;;1999.90;999.90;;;9.60;99.90;;;;;;5008266;28;20481;-67
2022/12/27 12:42:14;;;;;;;1999.90;999.90;;;9.60;99.90;;;;;;5008792;28;20877;-67
2022/12/27 12:45:05;;;;;;;1999.90;999.90;;;9.60;99.90;;;;;;5008657;28;20438;-68
2022/12/27 12:47:50;;;;;;;1999.90;999.90;;;9.50;99.90;;;;;;5008359;28;20434;-68
2022/12/27 12:50:32;;;;;;;1999.90;999.90;;;9.50;99.90;;;;;;5013996;28;20452;-68
2022/12/27 12:53:16;;;;;;;1999.90;999.90;;;9.50;99.90;;;;;;5027683;28;20455;-68
2022/12/27 12:55:58;;;;;;;1999.90;999.90;;;9.50;99.90;;;;;;5028018;28;20464;-68
2022/12/27 12:58:48;;;;;;;1999.90;999.90;;;9.70;99.90;;;;;;5027172;28;20455;-69
2022/12/27 13:01:29;;;;;;;1999.90;999.90;;;9.70;99.90;;;;;;5028069;28;20437;-69
2022/12/27 13:04:06;;;;;;;1999.90;999.90;;;9.90;99.90;;;;;;5027393;28;20449;-68
2022/12/27 13:06:56;;;;;;;1999.90;999.90;;;10.00;99.90;;;;;;5027999;28;20459;-67
2022/12/27 13:09:35;;;;;;;1999.90;999.90;;;10.00;99.90;;;;;;5025499;28;20449;-67
2022/12/27 13:12:11;;;;;;;1999.90;999.90;;;9.90;99.90;;;;;;5027551;28;20441;-67
2022/12/27 13:15:02;;;;;;;1999.90;999.90;;;10.00;99.90;;;;;;5027546;28;20472;-68
2022/12/27 13:17:39;;;;;;;1999.90;999.90;;;9.90;99.90;;;;;;5015072;28;20460;-68
2022/12/27 13:20:28;;;;;;;1999.90;999.90;;;9.80;99.90;;;;;;5027010;28;20479;-68
2022/12/27 13:23:06;;;;;;;1999.90;999.90;;;9.80;99.90;;;;;;5027557;28;20425;-68
2022/12/27 13:25:42;;;;;;;1999.90;999.90;;;9.90;99.90;;;;;;5020619;28;20469;-67
2022/12/27 13:28:28;;;;;;;1999.90;999.90;;;9.90;99.90;;;;;;5007841;28;20785;-68
2022/12/27 13:31:00;;;;;;;1999.90;999.90;;;9.70;99.90;;;;;;5007957;28;20456;-68
2022/12/27 13:33:35;;;;;;;1999.90;999.90;;;9.60;99.90;;;;;;5007710;28;20454;-68
2022/12/27 13:36:18;;;;;;;1999.90;999.90;;;9.60;99.90;;;;;;5007716;28;20461;-68
2022/12/27 13:39:05;;;;;;;1999.90;999.90;;;9.60;99.90;;;;;;5006986;28;20473;-68
2022/12/27 13:41:42;;;;;;;1999.90;999.90;;;9.60;99.90;;;;;;5007585;28;20445;-68
2022/12/27 13:44:31;;;;;;;1999.90;999.90;;;9.80;99.90;;;;;;5021219;28;20992;-68
2022/12/27 13:47:35;;;;;;;1999.90;999.90;;;10.00;99.90;;;;;;5030273;28;20457;-68
2022/12/27 13:50:49;;;;;;;1999.90;999.90;;;10.10;99.90;;;;;;5030555;28;20441;-68
2022/12/27 13:53:36;;;;;;;1999.90;999.90;;;9.90;99.90;;;;;;4969552;28;20471;-68
2022/12/27 13:56:15;;;;;;;1999.90;999.90;;;9.60;99.90;;;;;;5031496;28;20488;-68
2022/12/27 13:59:13;;;;;;;1999.90;999.90;;;9.30;99.90;;;;;;5031101;28;20444;-68
2022/12/27 14:02:01;;;;;;;1999.90;999.90;;;9.00;99.90;;;;;;5030345;28;20449;-68
2022/12/27 14:04:52;;;;;;;1999.90;999.90;;;8.90;99.90;;;;;;5031086;28;20817;-67
2022/12/27 14:07:43;;;;;;;1999.90;999.90;;;8.70;99.90;;;;;;5031328;28;20441;-68
2022/12/27 14:10:26;;;;;;;1999.90;999.90;;;8.70;99.90;;;;;;5031170;28;20456;-67
2022/12/27 14:13:01;;;;;;;1999.90;999.90;;;8.70;99.90;;;;;;5031492;28;20428;-67
2022/12/27 14:15:53;;;;;;;1999.90;999.90;;;8.80;99.90;;;;;;5031666;28;20480;-67
2022/12/27 14:18:43;;;;;;;1999.90;999.90;;;8.80;99.90;;;;;;4991798;28;20443;-67